Time;durP1;ratioP1;P1;durP2;ratioP2;P2;SDS_P1;SDS_P2;PMS_P1;PMS_P2;Temp;Humidity;BMP_temperature;BMP_pressure;BME280_temperature;BME280_humidity;BME280_pressure;Samples;Min_cycle;Max_cycle;Signal;HPM_P1;HPM_P2
2022/03/28 00:00:32;;;;;;;17.27;10.20;;;;;;;5.80;100.00;96198.09;5077654;28;20551;-59
2022/03/28 00:02:58;;;;;;;15.80;9.27;;;;;;;5.73;100.00;96191.75;5077215;28;20215;-60
2022/03/28 00:05:24;;;;;;;15.90;9.90;;;;;;;5.69;100.00;96190.88;5077504;28;20195;-59
2022/03/28 00:07:49;;;;;;;14.67;9.90;;;;;;;5.64;100.00;96191.13;5077314;28;20195;-59
2022/03/28 00:10:15;;;;;;;13.50;9.47;;;;;;;5.59;100.00;96188.69;5077368;28;20184;-59
2022/03/28 00:12:41;;;;;;;16.03;9.30;;;;;;;5.55;100.00;96183.22;5077184;28;20212;-59
2022/03/28 00:15:07;;;;;;;17.40;10.63;;;;;;;5.52;100.00;96181.19;5076977;28;20188;-59
2022/03/28 00:17:33;;;;;;;14.87;9.77;;;;;;;5.48;100.00;96182.25;5077727;28;20230;-58
2022/03/28 00:20:03;;;;;;;15.10;9.73;;;;;;;5.45;100.00;96182.94;5077639;28;20233;-59
2022/03/28 00:22:28;;;;;;;15.73;10.13;;;;;;;5.43;100.00;96171.69;5077140;28;20286;-58
2022/03/28 00:24:54;;;;;;;15.47;9.70;;;;;;;5.41;100.00;96171.22;5076909;28;20222;-59
2022/03/28 00:27:19;;;;;;;16.47;9.63;;;;;;;5.36;100.00;96179.63;5076894;28;20222;-61
2022/03/28 00:29:45;;;;;;;13.93;9.10;;;;;;;5.29;100.00;96168.63;5076797;28;20218;-59
2022/03/28 00:32:10;;;;;;;15.70;10.10;;;;;;;5.25;100.00;96162.34;5076799;28;20305;-58
2022/03/28 00:34:36;;;;;;;15.13;9.40;;;;;;;5.20;100.00;96166.09;5077313;28;20266;-59
2022/03/28 00:37:02;;;;;;;16.80;9.90;;;;;;;5.17;100.00;96171.44;5077022;28;20199;-59
2022/03/28 00:39:27;;;;;;;14.63;9.60;;;;;;;5.12;100.00;96163.56;5076615;28;20189;-58
2022/03/28 00:41:53;;;;;;;17.63;10.30;;;;;;;5.07;100.00;96172.72;5077354;28;20218;-58
2022/03/28 00:44:19;;;;;;;15.80;9.80;;;;;;;5.06;100.00;96167.69;5077589;28;20185;-58
2022/03/28 00:46:45;;;;;;;15.03;8.97;;;;;;;5.05;100.00;96163.38;5077196;28;20197;-58
2022/03/28 00:49:11;;;;;;;13.63;9.50;;;;;;;5.06;100.00;96159.56;5076505;28;20187;-58
2022/03/28 00:51:37;;;;;;;17.03;9.77;;;;;;;5.02;100.00;96159.44;5076474;28;20194;-58
2022/03/28 00:54:04;;;;;;;15.57;9.80;;;;;;;5.01;100.00;96157.09;5076624;28;20254;-59
2022/03/28 00:56:29;;;;;;;16.20;10.03;;;;;;;4.94;100.00;96152.28;5076648;28;20190;-58
2022/03/28 00:58:55;;;;;;;15.07;9.63;;;;;;;4.92;100.00;96156.50;5076548;28;20234;-58
2022/03/28 01:01:21;;;;;;;13.77;9.13;;;;;;;4.92;100.00;96156.50;5076746;28;20189;-58
2022/03/28 01:03:46;;;;;;;13.93;9.87;;;;;;;4.89;100.00;96144.44;5094165;28;20235;-58
2022/03/28 01:06:12;;;;;;;16.47;9.60;;;;;;;4.89;100.00;96149.06;5076261;28;20201;-58
2022/03/28 01:08:38;;;;;;;14.10;9.33;;;;;;;4.85;100.00;96146.25;5076592;28;20192;-58
2022/03/28 01:11:06;;;;;;;14.97;9.30;;;;;;;4.80;100.00;96146.50;5076231;28;20196;-68
2022/03/28 01:13:33;;;;;;;19.53;10.17;;;;;;;4.78;100.00;96137.97;5076256;28;20272;-68
2022/03/28 01:15:59;;;;;;;18.53;11.07;;;;;;;4.77;100.00;96136.38;5075875;28;20213;-68
2022/03/28 01:18:26;;;;;;;17.73;10.17;;;;;;;4.79;100.00;96136.03;5076081;28;20198;-68
2022/03/28 01:20:56;;;;;;;18.20;11.03;;;;;;;4.77;100.00;96130.22;5076859;28;20183;-67
2022/03/28 01:23:22;;;;;;;20.40;11.60;;;;;;;4.74;100.00;96133.59;5076809;28;20193;-68
2022/03/28 01:25:51;;;;;;;20.17;11.83;;;;;;;4.70;100.00;96133.50;5075917;28;20195;-69
2022/03/28 01:28:19;;;;;;;19.83;10.97;;;;;;;4.67;100.00;96138.81;5076124;28;20183;-68
2022/03/28 01:30:44;;;;;;;14.73;9.87;;;;;;;4.64;100.00;96129.50;5076530;28;20197;-59
2022/03/28 01:33:10;;;;;;;17.43;10.33;;;;;;;4.65;100.00;96135.66;5075982;28;20239;-69
2022/03/28 01:35:38;;;;;;;19.13;10.77;;;;;;;4.62;100.00;96133.69;5076147;28;20267;-69
2022/03/28 01:38:05;;;;;;;17.30;9.60;;;;;;;4.55;100.00;96128.09;5076443;28;20226;-69
2022/03/28 01:40:34;;;;;;;15.00;9.43;;;;;;;4.49;100.00;96132.97;5075624;28;20197;-68
2022/03/28 01:43:00;;;;;;;15.80;9.47;;;;;;;4.46;100.00;96124.72;5075555;28;20191;-69
2022/03/28 01:45:26;;;;;;;15.27;9.63;;;;;;;4.42;100.00;96123.84;5076388;28;20190;-69
2022/03/28 01:47:51;;;;;;;14.00;9.60;;;;;;;4.40;100.00;96116.09;5075735;28;20181;-69
2022/03/28 01:50:18;;;;;;;17.27;9.87;;;;;;;4.38;100.00;96107.56;5075860;28;20185;-58
2022/03/28 01:52:43;;;;;;;15.10;9.17;;;;;;;4.36;100.00;96115.22;5075745;28;20620;-57
2022/03/28 01:55:10;;;;;;;16.60;9.47;;;;;;;4.37;100.00;96110.59;5075898;28;20192;-59
2022/03/28 01:57:37;;;;;;;15.93;9.73;;;;;;;4.34;100.00;96100.47;5076116;28;20181;-57
2022/03/28 02:00:07;;;;;;;15.07;9.40;;;;;;;4.30;100.00;96105.00;5077913;28;20220;-58
2022/03/28 02:02:33;;;;;;;13.77;8.90;;;;;;;4.27;100.00;96108.38;5079393;28;20235;-58
2022/03/28 02:04:58;;;;;;;14.77;9.27;;;;;;;4.25;100.00;96102.53;5078915;28;20196;-57
2022/03/28 02:07:24;;;;;;;14.57;9.03;;;;;;;4.20;100.00;96100.09;5079369;28;20214;-57
2022/03/28 02:09:49;;;;;;;16.00;9.70;;;;;;;4.16;100.00;96099.19;5079097;28;20570;-58
2022/03/28 02:12:14;;;;;;;14.57;10.37;;;;;;;4.11;100.00;96088.66;5079051;28;20223;-58
2022/03/28 02:14:39;;;;;;;16.37;10.53;;;;;;;4.08;100.00;96092.81;5079679;28;20188;-58
2022/03/28 02:17:05;;;;;;;12.90;9.80;;;;;;;4.06;100.00;96089.69;5079110;28;20188;-58
2022/03/28 02:19:31;;;;;;;15.90;9.40;;;;;;;4.04;100.00;96093.84;5079177;28;20191;-59
2022/03/28 02:21:56;;;;;;;12.63;9.07;;;;;;;3.99;100.00;96094.88;5079364;28;20202;-58
2022/03/28 02:24:21;;;;;;;14.83;9.33;;;;;;;3.98;100.00;96087.91;5079039;28;20192;-58
2022/03/28 02:26:47;;;;;;;14.90;9.90;;;;;;;3.98;100.00;96092.53;5079463;28;20189;-53
2022/03/28 02:29:12;;;;;;;16.60;10.03;;;;;;;4.00;100.00;96090.28;5079050;28;20185;-53
2022/03/28 02:31:38;;;;;;;18.37;9.67;;;;;;;3.98;100.00;96087.91;5078790;28;20210;-54
2022/03/28 02:34:03;;;;;;;19.47;10.83;;;;;;;3.98;100.00;96092.53;5078826;28;20306;-53
2022/03/28 02:36:28;;;;;;;17.77;10.37;;;;;;;3.97;100.00;96090.97;5078664;28;20192;-54
2022/03/28 02:38:54;;;;;;;15.37;9.43;;;;;;;3.94;100.00;96086.22;5078860;28;20216;-53
2022/03/28 02:41:19;;;;;;;15.13;9.17;;;;;;;3.91;100.00;96092.31;5078660;28;20326;-54
2022/03/28 02:43:44;;;;;;;14.60;9.87;;;;;;;3.85;100.00;96094.47;5078910;28;20330;-54
2022/03/28 02:46:10;;;;;;;17.43;10.30;;;;;;;3.82;100.00;96094.38;5078925;28;20287;-68
2022/03/28 02:48:35;;;;;;;20.23;9.93;;;;;;;3.79;100.00;96089.66;5078589;28;20185;-59
2022/03/28 02:51:00;;;;;;;20.43;10.03;;;;;;;3.76;100.00;96093.03;5078601;28;20203;-60
2022/03/28 02:53:26;;;;;;;16.20;9.83;;;;;;;3.70;100.00;96089.81;5078314;28;20212;-60
2022/03/28 02:55:51;;;;;;;16.50;10.63;;;;;;;3.67;100.00;96087.78;5078399;28;20184;-59
2022/03/28 02:58:16;;;;;;;17.83;10.50;;;;;;;3.65;100.00;96090.06;5078530;28;20230;-59
2022/03/28 03:00:42;;;;;;;16.93;10.43;;;;;;;3.64;100.00;96082.28;5078547;28;20238;-59
2022/03/28 03:03:07;;;;;;;17.37;9.87;;;;;;;3.63;100.00;96083.41;5078172;28;20205;-59
2022/03/28 03:05:32;;;;;;;18.97;10.40;;;;;;;3.62;100.00;96089.94;5078325;28;20185;-77
2022/03/28 03:07:58;;;;;;;17.17;9.90;;;;;;;3.60;100.00;96087.56;5078537;28;20245;-78
2022/03/28 03:10:23;;;;;;;16.37;10.50;;;;;;;3.58;100.00;96079.81;5077181;28;20657;-76
2022/03/28 03:12:49;;;;;;;16.90;10.23;;;;;;;3.54;100.00;96076.22;5077874;28;20216;-77
2022/03/28 03:15:14;;;;;;;18.50;10.40;;;;;;;3.56;100.00;96077.81;5078156;28;20553;-77
2022/03/28 03:17:39;;;;;;;14.30;9.57;;;;;;;3.57;100.00;96082.06;5078055;28;20228;-77
2022/03/28 03:20:06;;;;;;;16.43;10.40;;;;;;;3.57;100.00;96082.06;5077988;28;20284;-59
2022/03/28 03:22:32;;;;;;;16.97;10.37;;;;;;;3.53;100.00;96088.16;5078523;28;20204;-53
2022/03/28 03:24:58;;;;;;;17.33;9.93;;;;;;;3.51;100.00;96085.00;5078042;28;20176;-76
2022/03/28 03:27:23;;;;;;;16.70;9.80;;;;;;;3.53;100.00;96086.59;5077837;28;20188;-76
2022/03/28 03:29:49;;;;;;;13.90;9.67;;;;;;;3.49;100.00;96092.66;5078115;28;20199;-76
2022/03/28 03:32:14;;;;;;;17.73;10.67;;;;;;;3.46;100.00;96082.53;5077940;28;20205;-76
2022/03/28 03:34:40;;;;;;;15.73;9.90;;;;;;;3.46;100.00;96087.16;5078281;28;20244;-76
2022/03/28 03:37:06;;;;;;;17.47;9.90;;;;;;;3.45;100.00;96089.06;5077797;28;20546;-68
2022/03/28 03:39:32;;;;;;;17.43;10.33;;;;;;;3.46;100.00;96087.94;5077738;28;20188;-58
2022/03/28 03:41:58;;;;;;;16.67;10.57;;;;;;;3.45;100.00;96091.78;5078400;28;20192;-58
2022/03/28 03:44:23;;;;;;;16.90;9.97;;;;;;;3.46;100.00;96087.94;5077814;28;20188;-58
2022/03/28 03:46:48;;;;;;;15.53;10.03;;;;;;;3.46;100.00;96082.53;5077479;28;20193;-58
2022/03/28 03:49:16;;;;;;;16.30;11.03;;;;;;;3.46;100.00;96090.63;5077632;28;20219;-58
2022/03/28 03:51:41;;;;;;;19.57;11.13;;;;;;;3.45;100.00;96089.06;5078082;28;20184;-58
2022/03/28 03:54:06;;;;;;;20.57;11.30;;;;;;;3.46;100.00;96087.94;5077368;28;20275;-58
2022/03/28 03:56:32;;;;;;;17.67;10.63;;;;;;;3.45;100.00;96091.78;5077543;28;20193;-59
2022/03/28 03:58:58;;;;;;;16.93;9.93;;;;;;;3.41;100.00;96090.88;5077554;28;20200;-68
2022/03/28 04:01:26;;;;;;;18.13;10.90;;;;;;;3.39;100.00;96081.56;5077305;28;20243;-58
2022/03/28 04:03:51;;;;;;;18.83;10.87;;;;;;;3.34;100.00;96077.19;5094086;28;20208;-58
2022/03/28 04:06:17;;;;;;;19.73;10.67;;;;;;;3.34;100.00;96087.19;5077386;28;20583;-58
2022/03/28 04:08:42;;;;;;;20.23;11.43;;;;;;;3.33;100.00;96083.72;5077192;28;20181;-59
2022/03/28 04:11:07;;;;;;;19.97;11.27;;;;;;;3.33;100.00;96088.31;5077025;28;20305;-58
2022/03/28 04:13:34;;;;;;;18.87;10.47;;;;;;;3.30;100.00;96084.38;5077210;28;20216;-58
2022/03/28 04:16:00;;;;;;;19.50;11.03;;;;;;;3.27;100.00;96085.06;5077250;28;20271;-59
2022/03/28 04:18:27;;;;;;;18.07;10.53;;;;;;;3.26;100.00;96078.09;5077142;28;20189;-58
2022/03/28 04:20:52;;;;;;;19.07;11.53;;;;;;;3.25;100.00;96087.28;5077666;28;20304;-58
2022/03/28 04:23:18;;;;;;;20.90;10.37;;;;;;;3.23;100.00;96073.38;5076670;28;20290;-58
2022/03/28 04:25:44;;;;;;;19.80;10.70;;;;;;;3.22;100.00;96077.19;5076985;28;20186;-58
2022/03/28 04:28:10;;;;;;;17.93;10.77;;;;;;;3.20;100.00;96074.03;5076977;28;20185;-58
2022/03/28 04:30:35;;;;;;;21.17;11.30;;;;;;;3.13;100.00;96073.81;5076979;28;20322;-58
2022/03/28 04:33:02;;;;;;;20.43;10.63;;;;;;;3.10;100.00;96074.50;5076661;28;20208;-60
2022/03/28 04:35:28;;;;;;;18.17;10.20;;;;;;;3.15;100.00;96076.97;5077108;28;20177;-53
2022/03/28 04:37:54;;;;;;;19.27;10.50;;;;;;;3.16;100.00;96073.16;5077122;28;20199;-58
2022/03/28 04:40:19;;;;;;;17.03;11.17;;;;;;;3.17;100.00;96063.94;5076816;28;20177;-58
2022/03/28 04:42:45;;;;;;;18.50;10.87;;;;;;;3.17;100.00;96074.72;5077252;28;20189;-58
2022/03/28 04:45:11;;;;;;;24.67;12.50;;;;;;;3.16;100.00;96073.16;5077212;28;20196;-58
2022/03/28 04:47:36;;;;;;;21.03;10.53;;;;;;;3.10;100.00;96071.78;5076938;28;20195;-59
2022/03/28 04:50:03;;;;;;;19.27;11.13;;;;;;;3.11;100.00;96069.91;5094521;28;20298;-59
2022/03/28 04:52:29;;;;;;;15.57;10.53;;;;;;;3.08;100.00;96070.56;5076674;28;20212;-53
2022/03/28 04:54:54;;;;;;;20.07;11.87;;;;;;;3.08;100.00;96076.75;5076832;28;20207;-71
2022/03/28 04:57:19;;;;;;;23.43;12.37;;;;;;;3.06;100.00;96070.91;5076708;28;20253;-56
2022/03/28 04:59:45;;;;;;;23.47;12.20;;;;;;;3.06;100.00;96070.91;5076576;28;20184;-57
2022/03/28 05:02:10;;;;;;;19.53;11.47;;;;;;;3.06;100.00;96073.59;5076348;28;20181;-61
2022/03/28 05:04:35;;;;;;;21.37;11.73;;;;;;;3.08;100.00;96071.38;5076769;28;20541;-58
2022/03/28 05:07:01;;;;;;;17.40;10.70;;;;;;;3.12;100.00;96072.25;5076482;28;20217;-57
2022/03/28 05:09:26;;;;;;;21.80;10.80;;;;;;;3.14;100.00;96070.00;5076524;28;20194;-57
2022/03/28 05:11:51;;;;;;;18.13;11.10;;;;;;;3.24;100.00;96074.94;5076069;28;20231;-58
2022/03/28 05:14:18;;;;;;;21.83;11.57;;;;;;;3.40;100.00;96062.31;5076342;28;20205;-59
2022/03/28 05:16:44;;;;;;;23.17;11.33;;;;;;;3.66;100.00;96069.22;5076486;28;20187;-58
2022/03/28 05:19:09;;;;;;;22.87;10.83;;;;;;;3.94;100.00;96070.03;5076003;28;20283;-58
2022/03/28 05:21:35;;;;;;;17.00;10.57;;;;;;;4.26;100.00;96074.38;5075938;28;20333;-59
2022/03/28 05:24:00;;;;;;;18.90;10.60;;;;;;;4.62;100.00;96066.06;5076504;28;20207;-59
2022/03/28 05:26:26;;;;;;;22.53;10.47;;;;;;;4.95;100.00;96071.91;5075777;28;20191;-59
2022/03/28 05:28:52;;;;;;;19.13;11.30;;;;;;;5.37;100.00;96072.88;5076543;28;20253;-66
2022/03/28 05:31:17;;;;;;;18.47;10.20;;;;;;;5.77;100.00;96067.97;5075889;28;20180;-56
2022/03/28 05:33:42;;;;;;;15.93;10.47;;;;;;;6.16;100.00;96066.84;5075039;28;20576;-59
2022/03/28 05:36:08;;;;;;;24.13;11.30;;;;;;;6.53;100.00;96066.00;5075982;28;20196;-59
2022/03/28 05:38:34;;;;;;;20.63;11.20;;;;;;;6.85;100.00;96061.91;5076201;28;20188;-59
2022/03/28 05:40:59;;;;;;;17.10;10.73;;;;;;;7.14;100.00;96063.16;5075959;28;20252;-61
2022/03/28 05:43:25;;;;;;;22.70;11.20;;;;;;;7.48;100.00;96067.56;5076356;28;20181;-60
2022/03/28 05:45:52;;;;;;;20.13;10.27;;;;;;;7.75;100.00;96069.09;5093541;28;20524;-59
2022/03/28 05:48:18;;;;;;;20.57;11.10;;;;;;;8.05;100.00;96058.22;5075783;28;20294;-60
2022/03/28 05:50:44;;;;;;;20.53;14.07;;;;;;;8.39;100.00;96063.31;5075773;28;20201;-62
2022/03/28 05:53:13;;;;;;;22.50;13.60;;;;;;;8.62;100.00;96066.66;5093570;28;20206;-62
2022/03/28 05:55:40;;;;;;;19.90;11.57;;;;;;;9.05;100.00;96052.28;5075624;28;20193;-62
2022/03/28 05:58:06;;;;;;;17.13;9.97;;;;;;;9.25;100.00;96056.34;5076091;28;20187;-62
2022/03/28 06:00:31;;;;;;;21.43;11.53;;;;;;;9.54;100.00;96047.19;5075510;28;20729;-63
2022/03/28 06:02:57;;;;;;;25.57;11.77;;;;;;;9.85;100.00;96057.50;5075320;28;20203;-62
2022/03/28 06:05:22;;;;;;;19.70;11.13;;;;;;;10.16;100.00;96050.66;5076073;28;20184;-69
2022/03/28 06:07:48;;;;;;;17.13;11.60;;;;;;;10.39;100.00;96055.81;5075292;28;20184;-62
2022/03/28 06:10:14;;;;;;;17.87;11.00;;;;;;;10.75;99.59;96061.00;5075302;28;20649;-59
2022/03/28 06:12:39;;;;;;;18.63;11.33;;;;;;;11.28;95.80;96055.53;5075148;28;20208;-59
2022/03/28 06:15:05;;;;;;;24.63;13.20;;;;;;;11.91;89.59;96056.28;5075369;28;20242;-59
2022/03/28 06:17:30;;;;;;;19.63;10.60;;;;;;;12.72;83.42;96050.47;5075712;28;20294;-60
2022/03/28 06:19:56;;;;;;;15.80;11.43;;;;;;;13.24;78.03;96055.63;5075451;28;20184;-59
2022/03/28 06:22:21;;;;;;;20.07;12.33;;;;;;;13.47;76.24;96048.78;5075296;28;20254;-59
2022/03/28 06:24:47;;;;;;;18.33;12.00;;;;;;;13.56;76.38;96057.31;5075678;28;20185;-60
2022/03/28 06:27:12;;;;;;;18.80;11.27;;;;;;;14.02;74.67;96061.16;5075071;28;20181;-68
2022/03/28 06:29:38;;;;;;;16.57;12.00;;;;;;;14.87;70.93;96067.22;5075379;28;20626;-68
2022/03/28 06:32:04;;;;;;;18.30;11.67;;;;;;;15.04;68.96;96049.66;5075112;28;20219;-69
2022/03/28 06:34:30;;;;;;;18.40;11.40;;;;;;;15.57;65.85;96057.91;5074917;28;20188;-69
2022/03/28 06:36:56;;;;;;;22.30;15.33;;;;;;;16.11;63.43;96055.75;5074819;28;20184;-68
2022/03/28 06:39:21;;;;;;;19.93;12.53;;;;;;;16.20;62.56;96048.47;5075324;28;20184;-68
2022/03/28 06:41:47;;;;;;;17.40;11.40;;;;;;;17.01;62.03;96051.56;5075241;28;20185;-68
2022/03/28 06:44:12;;;;;;;15.80;11.70;;;;;;;17.17;58.32;96051.56;5075008;28;20176;-61
2022/03/28 06:46:39;;;;;;;20.67;12.20;;;;;;;17.68;55.21;96061.81;5077904;28;20177;-54
2022/03/28 06:49:05;;;;;;;22.10;14.07;;;;;;;18.25;53.25;96050.84;5078219;28;20176;-55
2022/03/28 06:51:30;;;;;;;17.53;11.83;;;;;;;19.19;50.58;96047.28;5078771;28;20179;-55
2022/03/28 06:53:56;;;;;;;19.43;12.20;;;;;;;19.54;48.03;96040.66;5078287;28;20204;-54
2022/03/28 06:56:21;;;;;;;15.33;10.87;;;;;;;20.16;46.07;96034.22;5078368;28;20180;-53
2022/03/28 06:58:46;;;;;;;14.57;11.27;;;;;;;20.72;43.93;96034.94;5079071;28;20184;-54
2022/03/28 07:01:12;;;;;;;14.33;10.20;;;;;;;21.46;41.61;96043.22;5078704;28;20187;-61
2022/03/28 07:03:38;;;;;;;14.65;11.18;;;;;;;21.95;40.68;96039.22;5078190;28;20261;-59
2022/03/28 07:06:04;;;;;;;13.52;10.77;;;;;;;21.84;40.06;96033.31;5078773;28;20196;-59
2022/03/28 07:08:29;;;;;;;15.68;11.43;;;;;;;21.73;39.88;96033.00;5078620;28;20180;-58
2022/03/28 07:10:56;;;;;;;13.52;11.27;;;;;;;21.41;39.27;96036.25;5078458;28;20216;-59
2022/03/28 07:13:22;;;;;;;14.25;10.88;;;;;;;22.36;37.96;96024.69;5096338;28;20250;-59
2022/03/28 07:15:48;;;;;;;12.00;10.50;;;;;;;22.67;37.65;96032.13;5078691;28;20184;-59
2022/03/28 07:18:13;;;;;;;12.80;10.68;;;;;;;23.17;35.96;96029.41;5078200;28;20672;-61
2022/03/28 07:20:39;;;;;;;11.68;10.38;;;;;;;23.55;35.13;96034.38;5077907;28;20192;-61
2022/03/28 07:23:05;;;;;;;11.95;10.73;;;;;;;23.92;34.84;96030.94;5077721;28;20184;-70
2022/03/28 07:25:31;;;;;;;11.48;10.25;;;;;;;23.70;34.91;96029.66;5077982;28;20216;-70
2022/03/28 07:27:57;;;;;;;12.38;10.38;;;;;;;23.94;34.20;96024.91;5078006;28;20629;-69
2022/03/28 07:30:24;;;;;;;10.88;9.55;;;;;;;24.09;33.47;96017.34;5077892;28;20180;-69
2022/03/28 07:32:52;;;;;;;15.65;10.57;;;;;;;24.18;33.14;96011.72;5095753;28;20235;-70
2022/03/28 07:35:20;;;;;;;12.93;10.73;;;;;;;24.66;32.06;96007.59;5077604;28;20204;-70
2022/03/28 07:37:45;;;;;;;11.70;10.40;;;;;;;24.86;32.33;96004.91;5077736;28;20184;-55
2022/03/28 07:40:11;;;;;;;13.90;10.80;;;;;;;24.67;31.91;96004.34;5077538;28;20181;-62
2022/03/28 07:42:37;;;;;;;12.27;10.98;;;;;;;25.12;31.64;96003.06;5078528;28;20185;-61
2022/03/28 07:45:05;;;;;;;15.32;10.88;;;;;;;25.09;31.64;96006.81;5077724;28;20192;-62
2022/03/28 07:47:31;;;;;;;11.48;10.27;;;;;;;25.18;31.28;96004.72;5077334;28;20191;-61
2022/03/28 07:49:58;;;;;;;12.98;10.98;;;;;;;25.55;30.97;96004.28;5077169;28;20250;-62
2022/03/28 07:52:24;;;;;;;14.20;10.55;;;;;;;25.88;30.51;96008.34;5077531;28;20210;-61
2022/03/28 07:54:50;;;;;;;14.02;10.85;;;;;;;25.74;30.77;96009.16;5077558;28;20275;-62
2022/03/28 07:57:20;;;;;;;14.45;11.20;;;;;;;25.97;30.36;96011.06;5076660;28;20248;-61
2022/03/28 07:59:47;;;;;;;12.45;11.07;;;;;;;26.27;29.82;96009.66;5078047;28;20275;-56
2022/03/28 08:02:14;;;;;;;13.82;11.18;;;;;;;26.56;28.91;96009.47;5077258;28;20187;-56
2022/03/28 08:04:39;;;;;;;14.45;10.88;;;;;;;26.73;29.58;96004.84;5077280;28;20253;-55
2022/03/28 08:07:08;;;;;;;13.68;11.80;;;;;;;27.65;28.17;96011.78;5077388;28;20188;-57
2022/03/28 08:09:37;;;;;;;14.80;11.95;;;;;;;27.97;27.61;95996.44;5077880;28;20196;-57
2022/03/28 08:12:03;;;;;;;16.48;11.70;;;;;;;28.38;26.95;95982.06;5077028;28;20192;-56
2022/03/28 08:14:29;;;;;;;12.73;10.60;;;;;;;28.02;27.58;95995.72;5077087;28;20783;-62
2022/03/28 08:16:55;;;;;;;14.80;12.23;;;;;;;28.28;27.08;95993.53;5076899;28;20249;-62
2022/03/28 08:19:21;;;;;;;12.90;11.25;;;;;;;29.16;25.70;95986.63;5077444;28;20224;-59
2022/03/28 08:21:47;;;;;;;14.00;12.55;;;;;;;29.38;25.11;95992.25;5077084;28;20191;-60
2022/03/28 08:24:12;;;;;;;15.55;13.07;;;;;;;29.48;24.76;95985.09;5077059;28;20180;-60
2022/03/28 08:26:37;;;;;;;15.80;13.07;;;;;;;29.51;25.37;95989.69;5076515;28;20191;-61
2022/03/28 08:29:04;;;;;;;15.43;12.77;;;;;;;28.29;26.23;95989.44;5077017;28;20188;-60
2022/03/28 08:31:29;;;;;;;20.25;14.30;;;;;;;28.34;25.71;95990.75;5076874;28;20239;-60
2022/03/28 08:33:55;;;;;;;14.55;13.05;;;;;;;28.60;25.50;95996.22;5076894;28;20204;-59
2022/03/28 08:36:21;;;;;;;15.75;13.95;;;;;;;28.15;25.77;95989.63;5076815;28;20180;-58
2022/03/28 08:38:47;;;;;;;16.48;13.07;;;;;;;28.19;25.65;95990.94;5076783;28;20237;-58
2022/03/28 08:41:14;;;;;;;17.40;14.63;;;;;;;28.14;25.37;95988.88;5077228;28;20176;-59
2022/03/28 08:43:41;;;;;;;15.93;13.48;;;;;;;28.19;25.36;95985.31;5076916;28;20188;-58
2022/03/28 08:46:08;;;;;;;21.45;14.13;;;;;;;27.52;25.69;95993.81;5076553;28;20180;-58
2022/03/28 08:48:40;;;;;;;19.63;14.55;;;;;;;27.24;25.97;95990.81;5076965;28;20188;-59
2022/03/28 08:51:08;;;;;;;18.48;14.15;;;;;;;27.59;26.02;95985.72;5077048;28;20188;-56
2022/03/28 08:53:33;;;;;;;16.77;14.10;;;;;;;27.80;25.69;95989.16;5094491;28;20196;-71
2022/03/28 08:56:00;;;;;;;27.92;14.68;;;;;;;27.83;25.56;95986.16;5076557;28;20703;-55
2022/03/28 08:58:25;;;;;;;19.88;15.02;;;;;;;27.47;25.76;95986.94;5076322;28;20702;-54
2022/03/28 09:00:51;;;;;;;19.42;15.32;;;;;;;27.58;26.00;95978.59;5076558;28;20180;-55
2022/03/28 09:03:16;;;;;;;17.98;14.38;;;;;;;28.17;24.93;95976.63;5076453;28;20215;-56
2022/03/28 09:05:47;;;;;;;15.48;13.85;;;;;;;28.17;24.63;95976.63;5076438;28;20185;-56
2022/03/28 09:08:13;;;;;;;23.23;14.63;;;;;;;28.71;24.57;95968.13;5075617;28;20176;-55
2022/03/28 09:10:43;;;;;;;18.90;15.43;;;;;;;28.62;24.33;95971.94;5076146;28;20203;-71
2022/03/28 09:13:11;;;;;;;18.70;15.02;;;;;;;28.01;24.62;95974.50;5076635;28;20207;-72
2022/03/28 09:15:55;;;;;;;17.48;15.05;;;;;;;27.43;25.32;95975.13;5076559;28;20226;-72
2022/03/28 09:18:31;;;;;;;17.98;14.95;;;;;;;27.59;24.90;95968.88;5076181;28;20192;-72
2022/03/28 09:21:05;;;;;;;18.25;14.95;;;;;;;28.46;24.42;95958.63;5076145;28;20649;-71
2022/03/28 09:23:42;;;;;;;18.52;15.05;;;;;;;28.61;23.91;95964.00;5075994;28;20180;-68
2022/03/28 09:26:30;;;;;;;16.27;14.55;;;;;;;28.03;24.89;95959.94;5075762;28;20219;-73
2022/03/28 09:29:00;;;;;;;21.65;15.57;;;;;;;27.87;24.30;95952.22;5076470;28;20633;-71
2022/03/28 09:31:25;;;;;;;20.15;15.20;;;;;;;28.33;24.21;95955.47;5075808;28;20631;-59
2022/03/28 09:33:52;;;;;;;20.73;15.35;;;;;;;28.29;24.07;95944.47;5075981;28;20243;-60
2022/03/28 09:36:18;;;;;;;19.38;15.30;;;;;;;28.18;24.00;95941.63;5076286;28;20184;-59
2022/03/28 09:38:56;;;;;;;18.67;16.25;;;;;;;28.13;24.70;95942.38;5075851;28;20210;-59
2022/03/28 09:41:24;;;;;;;23.23;16.42;;;;;;;28.57;24.34;95943.81;5076152;28;20274;-59
2022/03/28 09:43:54;;;;;;;20.20;16.17;;;;;;;28.25;24.61;95938.34;5075859;28;20238;-59
2022/03/28 09:46:31;;;;;;;20.88;16.10;;;;;;;27.45;25.31;95938.16;5075655;28;20660;-61
2022/03/28 09:48:59;;;;;;;22.85;15.45;;;;;;;27.76;24.97;95930.41;5076171;28;20226;-61
2022/03/28 09:51:30;;;;;;;18.08;15.10;;;;;;;28.04;24.44;95922.94;5075618;28;20276;-59
2022/03/28 09:53:58;;;;;;;17.85;15.23;;;;;;;28.23;24.60;95924.00;5075569;28;20253;-59
2022/03/28 09:56:23;;;;;;;21.60;15.13;;;;;;;27.63;24.41;95921.69;5076243;28;20216;-58
2022/03/28 09:58:56;;;;;;;17.60;15.27;;;;;;;27.66;25.39;95917.88;5076100;28;20191;-59
2022/03/28 10:01:26;;;;;;;17.65;14.80;;;;;;;27.61;25.42;95917.84;5075711;28;20187;-59
2022/03/28 10:03:54;;;;;;;16.98;15.07;;;;;;;27.98;24.98;95912.94;5075364;28;20222;-63
2022/03/28 10:06:20;;;;;;;17.38;15.55;;;;;;;28.12;24.64;95909.91;5075430;28;20180;-62
2022/03/28 10:08:45;;;;;;;21.02;16.05;;;;;;;28.40;24.70;95904.38;5075911;28;20195;-56
2022/03/28 10:11:11;;;;;;;18.98;15.50;;;;;;;27.71;24.67;95902.31;5075997;28;20184;-57
2022/03/28 10:13:38;;;;;;;18.33;15.95;;;;;;;27.67;25.27;95908.19;5076159;28;20277;-56
2022/03/28 10:16:05;;;;;;;17.70;15.23;;;;;;;28.92;23.88;95899.13;5093326;28;20257;-56
2022/03/28 10:18:35;;;;;;;21.45;14.65;;;;;;;29.05;24.26;95888.13;5075449;28;20288;-57
2022/03/28 10:21:09;;;;;;;19.33;15.27;;;;;;;29.15;24.38;95886.59;5077941;28;20528;-56
2022/03/28 10:23:59;;;;;;;19.85;15.65;;;;;;;28.81;24.04;95887.84;5079522;28;20181;-59
2022/03/28 10:26:29;;;;;;;20.33;15.82;;;;;;;28.44;23.96;95881.69;5079234;28;20684;-69
2022/03/28 10:29:09;;;;;;;17.65;15.75;;;;;;;29.05;23.79;95865.63;5079074;28;20661;-68
2022/03/28 10:31:54;;;;;;;18.88;16.75;;;;;;;29.38;23.36;95868.38;5078895;28;20177;-68
2022/03/28 10:34:39;;;;;;;18.35;15.43;;;;;;;29.45;23.21;95865.03;5079583;28;20224;-68
2022/03/28 10:37:23;;;;;;;18.80;14.30;;;;;;;29.38;23.31;95859.94;5078729;28;20185;-68
2022/03/28 10:39:49;;;;;;;18.83;16.30;;;;;;;30.01;21.93;95858.72;5078838;28;20184;-69
2022/03/28 10:42:24;;;;;;;22.40;17.10;;;;;;;29.15;22.45;95855.63;5078978;28;20172;-59
2022/03/28 10:45:04;;;;;;;22.45;16.02;;;;;;;29.21;22.74;95845.88;5078833;28;20203;-71
2022/03/28 10:47:44;;;;;;;16.95;15.25;;;;;;;29.59;22.37;95842.25;5078680;28;20238;-73
2022/03/28 10:50:16;;;;;;;18.65;15.02;;;;;;;29.51;23.05;95840.44;5078597;28;20188;-73
2022/03/28 10:53:19;;;;;;;20.25;17.30;;;;;;;29.17;22.87;95836.94;5078183;28;20253;-72
2022/03/28 10:55:49;;;;;;;16.77;15.00;;;;;;;29.94;22.41;95830.31;5047334;28;20227;-72
2022/03/28 10:58:19;;;;;;;19.50;14.13;;;;;;;30.02;21.71;95828.47;5078400;28;20259;-72
2022/03/28 11:01:06;;;;;;;18.27;15.82;;;;;;;29.90;21.05;95824.19;5078404;28;20230;-59
2022/03/28 11:03:58;;;;;;;16.88;14.93;;;;;;;28.96;22.49;95813.19;5078005;28;20223;-58
2022/03/28 11:06:49;;;;;;;20.10;15.90;;;;;;;30.01;21.33;95812.88;5096303;28;20177;-58
2022/03/28 11:09:32;;;;;;;16.83;14.80;;;;;;;28.18;22.80;95798.31;5078424;28;20208;-58
2022/03/28 11:12:04;;;;;;;19.92;15.32;;;;;;;27.75;23.52;95794.09;5078117;28;20264;-58
2022/03/28 11:14:51;;;;;;;21.00;15.88;;;;;;;27.89;23.49;95792.38;5096031;28;20295;-59
2022/03/28 11:17:30;;;;;;;17.52;15.52;;;;;;;28.37;23.38;95786.59;5078622;28;20654;-58
2022/03/28 11:20:14;;;;;;;15.98;13.95;;;;;;;28.49;22.26;95782.53;5078324;28;20269;-58